sensor_id;sensor_type;location;lat;lon;timestamp;P1;durP1;ratioP1;P2;durP2;ratioP2
12950;SDS011;6540;50.858;7.232;2023-04-01T00:00:08;1.00;;;0.63;;
12950;SDS011;6540;50.858;7.232;2023-04-01T00:02:34;1.27;;;0.90;;
12950;SDS011;6540;50.858;7.232;2023-04-01T00:05:00;0.80;;;0.80;;
12950;SDS011;6540;50.858;7.232;2023-04-01T00:07:26;1.40;;;0.83;;
12950;SDS011;6540;50.858;7.232;2023-04-01T00:09:52;1.40;;;0.60;;
12950;SDS011;6540;50.858;7.232;2023-04-01T00:12:17;0.93;;;0.80;;
12950;SDS011;6540;50.858;7.232;2023-04-01T00:14:42;2.07;;;0.80;;
12950;SDS011;6540;50.858;7.232;2023-04-01T00:17:08;1.13;;;0.67;;
12950;SDS011;6540;50.858;7.232;2023-04-01T00:19:34;0.93;;;0.80;;
12950;SDS011;6540;50.858;7.232;2023-04-01T00:21:59;0.60;;;0.60;;
12950;SDS011;6540;50.858;7.232;2023-04-01T00:24:24;0.93;;;0.73;;
12950;SDS011;6540;50.858;7.232;2023-04-01T00:26:50;0.90;;;0.80;;
12950;SDS011;6540;50.858;7.232;2023-04-01T00:29:15;0.60;;;0.60;;
12950;SDS011;6540;50.858;7.232;2023-04-01T00:31:41;0.90;;;0.90;;
12950;SDS011;6540;50.858;7.232;2023-04-01T00:34:06;0.80;;;0.63;;
12950;SDS011;6540;50.858;7.232;2023-04-01T00:36:32;1.70;;;0.50;;
12950;SDS011;6540;50.858;7.232;2023-04-01T00:38:58;0.57;;;0.43;;
12950;SDS011;6540;50.858;7.232;2023-04-01T00:41:26;0.87;;;0.80;;
12950;SDS011;6540;50.858;7.232;2023-04-01T00:43:52;0.43;;;0.43;;
12950;SDS011;6540;50.858;7.232;2023-04-01T00:46:41;0.80;;;0.80;;
12950;SDS011;6540;50.858;7.232;2023-04-01T00:49:06;1.50;;;0.43;;
12950;SDS011;6540;50.858;7.232;2023-04-01T00:51:32;0.70;;;0.70;;
12950;SDS011;6540;50.858;7.232;2023-04-01T00:53:58;1.47;;;1.00;;
12950;SDS011;6540;50.858;7.232;2023-04-01T00:56:45;0.60;;;0.60;;
12950;SDS011;6540;50.858;7.232;2023-04-01T00:59:18;2.17;;;0.70;;
12950;SDS011;6540;50.858;7.232;2023-04-01T01:01:48;0.60;;;0.60;;
12950;SDS011;6540;50.858;7.232;2023-04-01T01:04:23;1.60;;;0.77;;
12950;SDS011;6540;50.858;7.232;2023-04-01T01:09:40;0.60;;;0.60;;
12950;SDS011;6540;50.858;7.232;2023-04-01T01:15:34;0.57;;;0.57;;
12950;SDS011;6540;50.858;7.232;2023-04-01T01:31:54;0.77;;;0.77;;
12950;SDS011;6540;50.858;7.232;2023-04-01T01:36:50;0.50;;;0.50;;
12950;SDS011;6540;50.858;7.232;2023-04-01T01:39:21;0.60;;;0.60;;
12950;SDS011;6540;50.858;7.232;2023-04-01T01:41:52;1.13;;;0.60;;
12950;SDS011;6540;50.858;7.232;2023-04-01T01:44:20;0.50;;;0.50;;
12950;SDS011;6540;50.858;7.232;2023-04-01T01:46:47;0.43;;;0.43;;
12950;SDS011;6540;50.858;7.232;2023-04-01T01:49:14;0.67;;;0.67;;
12950;SDS011;6540;50.858;7.232;2023-04-01T01:51:42;1.13;;;0.60;;
12950;SDS011;6540;50.858;7.232;2023-04-01T01:54:11;0.53;;;0.47;;
12950;SDS011;6540;50.858;7.232;2023-04-01T01:56:38;0.73;;;0.70;;
12950;SDS011;6540;50.858;7.232;2023-04-01T01:59:07;0.70;;;0.70;;
12950;SDS011;6540;50.858;7.232;2023-04-01T02:01:37;0.47;;;0.30;;
12950;SDS011;6540;50.858;7.232;2023-04-01T02:04:06;0.83;;;0.70;;
12950;SDS011;6540;50.858;7.232;2023-04-01T02:06:34;0.50;;;0.50;;
12950;SDS011;6540;50.858;7.232;2023-04-01T02:09:04;1.90;;;0.80;;
12950;SDS011;6540;50.858;7.232;2023-04-01T02:14:26;0.50;;;0.50;;
12950;SDS011;6540;50.858;7.232;2023-04-01T02:17:05;0.37;;;0.37;;
12950;SDS011;6540;50.858;7.232;2023-04-01T02:19:56;0.60;;;0.60;;
12950;SDS011;6540;50.858;7.232;2023-04-01T02:22:23;0.50;;;0.30;;
12950;SDS011;6540;50.858;7.232;2023-04-01T02:24:53;0.77;;;0.73;;
12950;SDS011;6540;50.858;7.232;2023-04-01T02:27:22;0.60;;;0.60;;
12950;SDS011;6540;50.858;7.232;2023-04-01T02:29:49;0.80;;;0.80;;
12950;SDS011;6540;50.858;7.232;2023-04-01T02:32:16;0.83;;;0.70;;
12950;SDS011;6540;50.858;7.232;2023-04-01T02:34:42;0.50;;;0.50;;
12950;SDS011;6540;50.858;7.232;2023-04-01T02:37:08;0.40;;;0.40;;
12950;SDS011;6540;50.858;7.232;2023-04-01T02:39:33;0.40;;;0.40;;
12950;SDS011;6540;50.858;7.232;2023-04-01T02:41:59;0.83;;;0.70;;
12950;SDS011;6540;50.858;7.232;2023-04-01T02:44:25;0.63;;;0.63;;
12950;SDS011;6540;50.858;7.232;2023-04-01T02:46:51;0.50;;;0.47;;
12950;SDS011;6540;50.858;7.232;2023-04-01T02:49:17;0.77;;;0.77;;
12950;SDS011;6540;50.858;7.232;2023-04-01T02:51:42;2.80;;;0.60;;
12950;SDS011;6540;50.858;7.232;2023-04-01T02:54:08;0.70;;;0.70;;
12950;SDS011;6540;50.858;7.232;2023-04-01T02:56:33;1.00;;;1.00;;
12950;SDS011;6540;50.858;7.232;2023-04-01T02:58:58;0.50;;;0.50;;
12950;SDS011;6540;50.858;7.232;2023-04-01T03:01:24;0.83;;;0.83;;
12950;SDS011;6540;50.858;7.232;2023-04-01T03:03:49;0.80;;;0.80;;
12950;SDS011;6540;50.858;7.232;2023-04-01T03:06:15;0.53;;;0.50;;
12950;SDS011;6540;50.858;7.232;2023-04-01T03:08:41;0.40;;;0.40;;
12950;SDS011;6540;50.858;7.232;2023-04-01T03:11:07;1.13;;;0.40;;
12950;SDS011;6540;50.858;7.232;2023-04-01T03:13:32;0.70;;;0.70;;
12950;SDS011;6540;50.858;7.232;2023-04-01T03:15:58;0.70;;;0.70;;
12950;SDS011;6540;50.858;7.232;2023-04-01T03:18:23;0.37;;;0.30;;
12950;SDS011;6540;50.858;7.232;2023-04-01T03:20:49;0.83;;;0.77;;
12950;SDS011;6540;50.858;7.232;2023-04-01T03:23:14;0.50;;;0.50;;
12950;SDS011;6540;50.858;7.232;2023-04-01T03:25:42;0.83;;;0.80;;
12950;SDS011;6540;50.858;7.232;2023-04-01T03:28:08;0.70;;;0.70;;
12950;SDS011;6540;50.858;7.232;2023-04-01T03:30:33;0.57;;;0.57;;
12950;SDS011;6540;50.858;7.232;2023-04-01T03:32:59;0.57;;;0.57;;
12950;SDS011;6540;50.858;7.232;2023-04-01T03:35:25;0.87;;;0.40;;
12950;SDS011;6540;50.858;7.232;2023-04-01T03:37:51;0.70;;;0.70;;
12950;SDS011;6540;50.858;7.232;2023-04-01T03:40:17;0.53;;;0.53;;
12950;SDS011;6540;50.858;7.232;2023-04-01T03:42:42;0.53;;;0.50;;
12950;SDS011;6540;50.858;7.232;2023-04-01T03:45:08;0.50;;;0.43;;
12950;SDS011;6540;50.858;7.232;2023-04-01T03:47:34;3.20;;;1.10;;
12950;SDS011;6540;50.858;7.232;2023-04-01T03:49:59;0.60;;;0.60;;
12950;SDS011;6540;50.858;7.232;2023-04-01T03:52:25;0.47;;;0.40;;
12950;SDS011;6540;50.858;7.232;2023-04-01T03:54:50;1.03;;;0.67;;
12950;SDS011;6540;50.858;7.232;2023-04-01T03:57:16;0.80;;;0.80;;
12950;SDS011;6540;50.858;7.232;2023-04-01T03:59:41;0.40;;;0.40;;
12950;SDS011;6540;50.858;7.232;2023-04-01T04:02:06;1.60;;;0.60;;
12950;SDS011;6540;50.858;7.232;2023-04-01T04:04:32;0.70;;;0.70;;
12950;SDS011;6540;50.858;7.232;2023-04-01T04:06:57;1.23;;;1.13;;
12950;SDS011;6540;50.858;7.232;2023-04-01T04:09:22;1.37;;;0.90;;
12950;SDS011;6540;50.858;7.232;2023-04-01T04:11:48;0.70;;;0.50;;
12950;SDS011;6540;50.858;7.232;2023-04-01T04:14:14;0.60;;;0.60;;
12950;SDS011;6540;50.858;7.232;2023-04-01T04:16:40;0.50;;;0.50;;
12950;SDS011;6540;50.858;7.232;2023-04-01T04:19:06;0.60;;;0.60;;
12950;SDS011;6540;50.858;7.232;2023-04-01T04:21:31;0.90;;;0.67;;
12950;SDS011;6540;50.858;7.232;2023-04-01T04:23:57;0.53;;;0.53;;
12950;SDS011;6540;50.858;7.232;2023-04-01T04:26:24;0.30;;;0.30;;
12950;SDS011;6540;50.858;7.232;2023-04-01T04:28:49;0.40;;;0.40;;
12950;SDS011;6540;50.858;7.232;2023-04-01T04:31:18;0.50;;;0.50;;
12950;SDS011;6540;50.858;7.232;2023-04-01T04:33:45;0.67;;;0.67;;
12950;SDS011;6540;50.858;7.232;2023-04-01T04:36:11;0.40;;;0.40;;
12950;SDS011;6540;50.858;7.232;2023-04-01T04:38:36;0.70;;;0.33;;
12950;SDS011;6540;50.858;7.232;2023-04-01T04:41:01;0.27;;;0.27;;
12950;SDS011;6540;50.858;7.232;2023-04-01T04:43:27;0.40;;;0.40;;
12950;SDS011;6540;50.858;7.232;2023-04-01T04:45:52;0.50;;;0.50;;
12950;SDS011;6540;50.858;7.232;2023-04-01T04:48:17;1.70;;;1.37;;
12950;SDS011;6540;50.858;7.232;2023-04-01T04:50:44;0.70;;;0.70;;
12950;SDS011;6540;50.858;7.232;2023-04-01T04:53:14;0.60;;;0.60;;
12950;SDS011;6540;50.858;7.232;2023-04-01T04:55:44;0.53;;;0.53;;
12950;SDS011;6540;50.858;7.232;2023-04-01T04:58:10;0.73;;;0.50;;
12950;SDS011;6540;50.858;7.232;2023-04-01T05:00:36;0.20;;;0.20;;
12950;SDS011;6540;50.858;7.232;2023-04-01T05:03:01;0.60;;;0.60;;
12950;SDS011;6540;50.858;7.232;2023-04-01T05:05:27;0.57;;;0.57;;
12950;SDS011;6540;50.858;7.232;2023-04-01T05:07:52;0.57;;;0.57;;
12950;SDS011;6540;50.858;7.232;2023-04-01T05:10:17;0.50;;;0.50;;
12950;SDS011;6540;50.858;7.232;2023-04-01T05:12:43;0.30;;;0.30;;
12950;SDS011;6540;50.858;7.232;2023-04-01T05:15:08;0.70;;;0.70;;
12950;SDS011;6540;50.858;7.232;2023-04-01T05:17:34;0.53;;;0.53;;
12950;SDS011;6540;50.858;7.232;2023-04-01T05:19:59;0.47;;;0.47;;
12950;SDS011;6540;50.858;7.232;2023-04-01T05:22:25;0.43;;;0.43;;
12950;SDS011;6540;50.858;7.232;2023-04-01T05:24:51;1.40;;;0.40;;
12950;SDS011;6540;50.858;7.232;2023-04-01T05:27:16;0.33;;;0.33;;
12950;SDS011;6540;50.858;7.232;2023-04-01T05:29:41;0.70;;;0.70;;
12950;SDS011;6540;50.858;7.232;2023-04-01T05:32:09;0.60;;;0.60;;
12950;SDS011;6540;50.858;7.232;2023-04-01T05:34:34;0.70;;;0.70;;
12950;SDS011;6540;50.858;7.232;2023-04-01T05:37:00;0.77;;;0.53;;
12950;SDS011;6540;50.858;7.232;2023-04-01T05:39:25;0.60;;;0.60;;
12950;SDS011;6540;50.858;7.232;2023-04-01T05:41:51;0.40;;;0.40;;
12950;SDS011;6540;50.858;7.232;2023-04-01T05:44:16;1.60;;;0.80;;
12950;SDS011;6540;50.858;7.232;2023-04-01T05:46:42;0.60;;;0.60;;
12950;SDS011;6540;50.858;7.232;2023-04-01T05:49:07;1.03;;;0.80;;
12950;SDS011;6540;50.858;7.232;2023-04-01T05:51:33;1.43;;;0.73;;
12950;SDS011;6540;50.858;7.232;2023-04-01T05:53:58;0.73;;;0.73;;
12950;SDS011;6540;50.858;7.232;2023-04-01T05:56:24;0.80;;;0.80;;
12950;SDS011;6540;50.858;7.232;2023-04-01T05:58:53;0.93;;;0.93;;
12950;SDS011;6540;50.858;7.232;2023-04-01T06:01:19;0.73;;;0.73;;
12950;SDS011;6540;50.858;7.232;2023-04-01T06:03:45;0.73;;;0.73;;
12950;SDS011;6540;50.858;7.232;2023-04-01T06:06:15;0.87;;;0.87;;
12950;SDS011;6540;50.858;7.232;2023-04-01T06:08:44;0.80;;;0.80;;
12950;SDS011;6540;50.858;7.232;2023-04-01T06:11:25;1.07;;;0.97;;
12950;SDS011;6540;50.858;7.232;2023-04-01T06:14:07;1.17;;;1.00;;
12950;SDS011;6540;50.858;7.232;2023-04-01T06:17:12;2.60;;;1.77;;
12950;SDS011;6540;50.858;7.232;2023-04-01T06:22:27;0.90;;;0.90;;
12950;SDS011;6540;50.858;7.232;2023-04-01T06:25:04;2.23;;;1.37;;
12950;SDS011;6540;50.858;7.232;2023-04-01T06:30:22;4.23;;;0.67;;
12950;SDS011;6540;50.858;7.232;2023-04-01T06:38:59;1.23;;;0.90;;
12950;SDS011;6540;50.858;7.232;2023-04-01T06:56:40;3.23;;;1.23;;
12950;SDS011;6540;50.858;7.232;2023-04-01T06:59:17;1.80;;;0.80;;
12950;SDS011;6540;50.858;7.232;2023-04-01T07:01:47;0.80;;;0.80;;
12950;SDS011;6540;50.858;7.232;2023-04-01T07:06:58;1.27;;;0.90;;
12950;SDS011;6540;50.858;7.232;2023-04-01T07:09:34;0.97;;;0.90;;
12950;SDS011;6540;50.858;7.232;2023-04-01T07:12:06;1.33;;;0.80;;
12950;SDS011;6540;50.858;7.232;2023-04-01T07:14:40;1.60;;;0.90;;
12950;SDS011;6540;50.858;7.232;2023-04-01T07:17:08;0.77;;;0.77;;
12950;SDS011;6540;50.858;7.232;2023-04-01T07:19:44;1.00;;;1.00;;
12950;SDS011;6540;50.858;7.232;2023-04-01T07:25:02;1.00;;;0.90;;
12950;SDS011;6540;50.858;7.232;2023-04-01T07:27:35;0.80;;;0.80;;
12950;SDS011;6540;50.858;7.232;2023-04-01T07:30:02;0.83;;;0.83;;
12950;SDS011;6540;50.858;7.232;2023-04-01T07:32:47;1.20;;;1.10;;
12950;SDS011;6540;50.858;7.232;2023-04-01T07:35:23;1.00;;;0.90;;
12950;SDS011;6540;50.858;7.232;2023-04-01T07:38:06;0.93;;;0.93;;
12950;SDS011;6540;50.858;7.232;2023-04-01T07:46:07;0.90;;;0.90;;
12950;SDS011;6540;50.858;7.232;2023-04-01T07:57:11;1.87;;;1.77;;
12950;SDS011;6540;50.858;7.232;2023-04-01T08:00:04;1.00;;;1.00;;
12950;SDS011;6540;50.858;7.232;2023-04-01T08:02:53;1.40;;;1.07;;
12950;SDS011;6540;50.858;7.232;2023-04-01T08:11:01;1.50;;;1.10;;
12950;SDS011;6540;50.858;7.232;2023-04-01T08:21:35;1.77;;;1.20;;
12950;SDS011;6540;50.858;7.232;2023-04-01T08:24:10;1.93;;;1.07;;
12950;SDS011;6540;50.858;7.232;2023-04-01T08:26:44;0.70;;;0.70;;
12950;SDS011;6540;50.858;7.232;2023-04-01T08:29:20;6.07;;;1.37;;
12950;SDS011;6540;50.858;7.232;2023-04-01T08:34:34;2.77;;;1.17;;
12950;SDS011;6540;50.858;7.232;2023-04-01T08:37:07;1.37;;;1.10;;
12950;SDS011;6540;50.858;7.232;2023-04-01T08:39:46;1.30;;;1.20;;
12950;SDS011;6540;50.858;7.232;2023-04-01T09:00:53;3.40;;;1.77;;
12950;SDS011;6540;50.858;7.232;2023-04-01T09:03:39;1.57;;;1.00;;
12950;SDS011;6540;50.858;7.232;2023-04-01T09:11:43;1.60;;;1.50;;
12950;SDS011;6540;50.858;7.232;2023-04-01T09:25:53;1.63;;;1.30;;
12950;SDS011;6540;50.858;7.232;2023-04-01T09:37:36;1.27;;;1.13;;
12950;SDS011;6540;50.858;7.232;2023-04-01T10:11:43;2.60;;;1.13;;
12950;SDS011;6540;50.858;7.232;2023-04-01T10:20:05;1.23;;;1.10;;
12950;SDS011;6540;50.858;7.232;2023-04-01T10:25:36;1.30;;;1.20;;
12950;SDS011;6540;50.858;7.232;2023-04-01T10:42:25;1.20;;;1.20;;
12950;SDS011;6540;50.858;7.232;2023-04-01T10:59:00;1.70;;;1.60;;
12950;SDS011;6540;50.858;7.232;2023-04-01T11:15:47;1.97;;;1.60;;
12950;SDS011;6540;50.858;7.232;2023-04-01T11:27:46;2.03;;;1.80;;
12950;SDS011;6540;50.858;7.232;2023-04-01T11:34:50;1.43;;;1.20;;
12950;SDS011;6540;50.858;7.232;2023-04-01T11:45:53;1.30;;;1.20;;
12950;SDS011;6540;50.858;7.232;2023-04-01T12:04:54;5.53;;;2.87;;
12950;SDS011;6540;50.858;7.232;2023-04-01T12:08:01;6.13;;;3.67;;
12950;SDS011;6540;50.858;7.232;2023-04-01T12:13:16;2.10;;;1.90;;
12950;SDS011;6540;50.858;7.232;2023-04-01T12:18:25;1.37;;;1.27;;
12950;SDS011;6540;50.858;7.232;2023-04-01T12:21:37;2.30;;;2.10;;
12950;SDS011;6540;50.858;7.232;2023-04-01T12:29:25;2.23;;;1.57;;
12950;SDS011;6540;50.858;7.232;2023-04-01T12:37:52;1.60;;;1.50;;
12950;SDS011;6540;50.858;7.232;2023-04-01T12:40:38;1.40;;;1.30;;
12950;SDS011;6540;50.858;7.232;2023-04-01T12:46:19;1.53;;;1.43;;
12950;SDS011;6540;50.858;7.232;2023-04-01T12:54:48;1.60;;;1.50;;
12950;SDS011;6540;50.858;7.232;2023-04-01T12:57:51;2.00;;;1.60;;
12950;SDS011;6540;50.858;7.232;2023-04-01T13:00:31;1.70;;;1.60;;
12950;SDS011;6540;50.858;7.232;2023-04-01T13:08:34;2.03;;;1.83;;
12950;SDS011;6540;50.858;7.232;2023-04-01T13:16:33;2.23;;;2.03;;
12950;SDS011;6540;50.858;7.232;2023-04-01T13:19:07;2.73;;;1.77;;
12950;SDS011;6540;50.858;7.232;2023-04-01T13:24:25;1.67;;;1.57;;
12950;SDS011;6540;50.858;7.232;2023-04-01T13:27:10;3.87;;;2.07;;
12950;SDS011;6540;50.858;7.232;2023-04-01T13:29:48;2.57;;;1.80;;
12950;SDS011;6540;50.858;7.232;2023-04-01T13:32:54;5.17;;;2.00;;
12950;SDS011;6540;50.858;7.232;2023-04-01T13:41:29;2.23;;;2.03;;
12950;SDS011;6540;50.858;7.232;2023-04-01T13:55:20;2.93;;;1.23;;
12950;SDS011;6540;50.858;7.232;2023-04-01T14:10:08;2.17;;;1.97;;
12950;SDS011;6540;50.858;7.232;2023-04-01T14:15:29;1.93;;;1.73;;
12950;SDS011;6540;50.858;7.232;2023-04-01T14:29:58;2.63;;;1.93;;
12950;SDS011;6540;50.858;7.232;2023-04-01T14:38:25;2.30;;;1.80;;
12950;SDS011;6540;50.858;7.232;2023-04-01T14:41:00;2.23;;;2.03;;
12950;SDS011;6540;50.858;7.232;2023-04-01T14:51:23;2.77;;;2.33;;
12950;SDS011;6540;50.858;7.232;2023-04-01T14:56:43;2.43;;;2.23;;
12950;SDS011;6540;50.858;7.232;2023-04-01T14:59:25;2.77;;;2.20;;
12950;SDS011;6540;50.858;7.232;2023-04-01T15:10:12;3.87;;;2.60;;
12950;SDS011;6540;50.858;7.232;2023-04-01T15:24:06;2.57;;;2.37;;
12950;SDS011;6540;50.858;7.232;2023-04-01T15:26:42;4.20;;;2.17;;
12950;SDS011;6540;50.858;7.232;2023-04-01T15:43:01;2.67;;;2.30;;
12950;SDS011;6540;50.858;7.232;2023-04-01T16:02:07;5.43;;;2.40;;
12950;SDS011;6540;50.858;7.232;2023-04-01T16:05:00;2.30;;;2.00;;
12950;SDS011;6540;50.858;7.232;2023-04-01T16:16:12;2.60;;;2.40;;
12950;SDS011;6540;50.858;7.232;2023-04-01T16:24:17;3.73;;;2.37;;
12950;SDS011;6540;50.858;7.232;2023-04-01T16:37:30;3.57;;;2.70;;
12950;SDS011;6540;50.858;7.232;2023-04-01T16:42:51;2.33;;;2.13;;
12950;SDS011;6540;50.858;7.232;2023-04-01T16:47:54;3.13;;;2.80;;
12950;SDS011;6540;50.858;7.232;2023-04-01T16:55:51;2.70;;;2.50;;
12950;SDS011;6540;50.858;7.232;2023-04-01T17:01:26;2.33;;;2.10;;
12950;SDS011;6540;50.858;7.232;2023-04-01T17:03:58;2.87;;;2.63;;
12950;SDS011;6540;50.858;7.232;2023-04-01T17:11:38;2.40;;;2.20;;
12950;SDS011;6540;50.858;7.232;2023-04-01T17:17:32;2.40;;;2.20;;
12950;SDS011;6540;50.858;7.232;2023-04-01T17:30:35;2.10;;;2.00;;
12950;SDS011;6540;50.858;7.232;2023-04-01T17:35:57;3.33;;;2.67;;
12950;SDS011;6540;50.858;7.232;2023-04-01T17:47:01;2.80;;;1.97;;
12950;SDS011;6540;50.858;7.232;2023-04-01T17:54:49;2.50;;;2.30;;
12950;SDS011;6540;50.858;7.232;2023-04-01T17:57:46;2.70;;;2.50;;
12950;SDS011;6540;50.858;7.232;2023-04-01T18:06:01;2.43;;;2.17;;
12950;SDS011;6540;50.858;7.232;2023-04-01T18:14:09;2.30;;;2.10;;
12950;SDS011;6540;50.858;7.232;2023-04-01T18:17:33;2.43;;;2.23;;
12950;SDS011;6540;50.858;7.232;2023-04-01T18:22:56;2.53;;;2.33;;
12950;SDS011;6540;50.858;7.232;2023-04-01T18:25:38;2.90;;;2.33;;
12950;SDS011;6540;50.858;7.232;2023-04-01T18:39:08;2.97;;;2.70;;
12950;SDS011;6540;50.858;7.232;2023-04-01T18:41:50;3.30;;;3.00;;
12950;SDS011;6540;50.858;7.232;2023-04-01T18:44:29;3.53;;;3.23;;
12950;SDS011;6540;50.858;7.232;2023-04-01T18:55:46;4.10;;;3.70;;
12950;SDS011;6540;50.858;7.232;2023-04-01T19:03:54;3.67;;;3.23;;
12950;SDS011;6540;50.858;7.232;2023-04-01T19:06:30;4.63;;;3.23;;
12950;SDS011;6540;50.858;7.232;2023-04-01T19:09:09;3.23;;;2.93;;
12950;SDS011;6540;50.858;7.232;2023-04-01T19:11:47;3.70;;;3.40;;
12950;SDS011;6540;50.858;7.232;2023-04-01T19:25:46;3.20;;;3.00;;
12950;SDS011;6540;50.858;7.232;2023-04-01T19:33:52;3.50;;;3.20;;
12950;SDS011;6540;50.858;7.232;2023-04-01T19:41:56;3.50;;;3.20;;
12950;SDS011;6540;50.858;7.232;2023-04-01T19:46:58;4.97;;;4.10;;
12950;SDS011;6540;50.858;7.232;2023-04-01T19:49:48;4.27;;;3.77;;
12950;SDS011;6540;50.858;7.232;2023-04-01T19:52:36;5.23;;;3.50;;
12950;SDS011;6540;50.858;7.232;2023-04-01T20:00:51;4.70;;;3.43;;
12950;SDS011;6540;50.858;7.232;2023-04-01T20:05:49;4.70;;;3.43;;
12950;SDS011;6540;50.858;7.232;2023-04-01T20:11:29;3.73;;;3.33;;
12950;SDS011;6540;50.858;7.232;2023-04-01T20:14:13;4.13;;;3.67;;
12950;SDS011;6540;50.858;7.232;2023-04-01T20:16:50;4.77;;;4.33;;
12950;SDS011;6540;50.858;7.232;2023-04-01T20:19:26;4.17;;;3.77;;
12950;SDS011;6540;50.858;7.232;2023-04-01T20:21:58;5.20;;;3.67;;
12950;SDS011;6540;50.858;7.232;2023-04-01T20:24:29;3.80;;;3.40;;
12950;SDS011;6540;50.858;7.232;2023-04-01T20:27:08;5.07;;;3.90;;
12950;SDS011;6540;50.858;7.232;2023-04-01T20:29:47;5.43;;;4.10;;
12950;SDS011;6540;50.858;7.232;2023-04-01T20:35:11;3.67;;;3.33;;
12950;SDS011;6540;50.858;7.232;2023-04-01T20:41:03;4.50;;;4.10;;
12950;SDS011;6540;50.858;7.232;2023-04-01T20:43:43;5.97;;;3.67;;
12950;SDS011;6540;50.858;7.232;2023-04-01T20:46:19;5.73;;;4.33;;
12950;SDS011;6540;50.858;7.232;2023-04-01T20:54:40;5.83;;;4.77;;
12950;SDS011;6540;50.858;7.232;2023-04-01T20:57:44;7.03;;;4.60;;
12950;SDS011;6540;50.858;7.232;2023-04-01T22:00:23;2.70;;;2.50;;
12950;SDS011;6540;50.858;7.232;2023-04-01T22:10:55;3.30;;;2.50;;
12950;SDS011;6540;50.858;7.232;2023-04-01T22:13:39;2.63;;;2.43;;
12950;SDS011;6540;50.858;7.232;2023-04-01T22:16:27;2.53;;;2.33;;
12950;SDS011;6540;50.858;7.232;2023-04-01T22:29:32;2.60;;;2.40;;
12950;SDS011;6540;50.858;7.232;2023-04-01T22:32:16;2.63;;;2.43;;
12950;SDS011;6540;50.858;7.232;2023-04-01T22:34:50;2.93;;;2.57;;
12950;SDS011;6540;50.858;7.232;2023-04-01T22:43:12;2.30;;;2.10;;
12950;SDS011;6540;50.858;7.232;2023-04-01T22:45:49;3.07;;;2.57;;
12950;SDS011;6540;50.858;7.232;2023-04-01T22:48:41;2.90;;;2.63;;
12950;SDS011;6540;50.858;7.232;2023-04-01T22:56:35;2.50;;;2.30;;
12950;SDS011;6540;50.858;7.232;2023-04-01T22:59:08;2.40;;;2.20;;
12950;SDS011;6540;50.858;7.232;2023-04-01T23:01:46;3.00;;;2.60;;
12950;SDS011;6540;50.858;7.232;2023-04-01T23:04:20;3.00;;;2.70;;
12950;SDS011;6540;50.858;7.232;2023-04-01T23:06:49;2.20;;;2.00;;
12950;SDS011;6540;50.858;7.232;2023-04-01T23:09:33;2.37;;;2.17;;
12950;SDS011;6540;50.858;7.232;2023-04-01T23:12:04;2.03;;;1.87;;
12950;SDS011;6540;50.858;7.232;2023-04-01T23:14:47;2.00;;;1.90;;
12950;SDS011;6540;50.858;7.232;2023-04-01T23:17:25;2.20;;;2.00;;
12950;SDS011;6540;50.858;7.232;2023-04-01T23:23:52;2.30;;;1.97;;
12950;SDS011;6540;50.858;7.232;2023-04-01T23:26:21;2.10;;;1.90;;
12950;SDS011;6540;50.858;7.232;2023-04-01T23:28:55;2.60;;;2.20;;
12950;SDS011;6540;50.858;7.232;2023-04-01T23:33:53;3.23;;;2.53;;
12950;SDS011;6540;50.858;7.232;2023-04-01T23:36:20;2.73;;;2.53;;
12950;SDS011;6540;50.858;7.232;2023-04-01T23:38:47;3.07;;;2.47;;
12950;SDS011;6540;50.858;7.232;2023-04-01T23:41:27;2.77;;;2.57;;
12950;SDS011;6540;50.858;7.232;2023-04-01T23:44:05;7.70;;;2.60;;
12950;SDS011;6540;50.858;7.232;2023-04-01T23:46:34;2.53;;;2.33;;
12950;SDS011;6540;50.858;7.232;2023-04-01T23:49:00;2.40;;;2.20;;
12950;SDS011;6540;50.858;7.232;2023-04-01T23:51:29;2.30;;;2.10;;
12950;SDS011;6540;50.858;7.232;2023-04-01T23:54:11;2.47;;;2.20;;
12950;SDS011;6540;50.858;7.232;2023-04-01T23:56:43;2.23;;;2.03;;
12950;SDS011;6540;50.858;7.232;2023-04-01T23:59:46;2.50;;;2.30;;
